Time;durP1;ratioP1;P1;durP2;ratioP2;P2;SDS_P1;SDS_P2;PMS_P1;PMS_P2;Temp;Humidity;BMP_temperature;BMP_pressure;BME280_temperature;BME280_humidity;BME280_pressure;Samples;Min_cycle;Max_cycle;Signal;HPM_P1;HPM_P2
2022/12/01 00:01:39;;;;;;;0.65;0.65;;;;;;;2.33;81.86;102303.94;5045967;28;20025;-75
2022/12/01 00:04:04;;;;;;;0.50;0.50;;;;;;;2.31;82.03;102302.97;5045661;28;20029;-73
2022/12/01 00:06:29;;;;;;;0.50;0.50;;;;;;;2.28;82.15;102305.34;5044271;28;20422;-73
2022/12/01 00:11:39;;;;;;;0.60;0.60;;;;;;;2.21;82.38;102299.00;5045478;28;20055;-73
2022/12/01 00:14:04;;;;;;;0.50;0.50;;;;;;;2.25;82.36;102292.38;5045365;28;20026;-72
2022/12/01 00:16:30;;;;;;;0.60;0.60;;;;;;;2.22;82.46;102288.81;5045414;28;20121;-72
2022/12/01 00:18:55;;;;;;;0.85;0.85;;;;;;;2.18;82.62;102288.56;5043966;28;20063;-72
2022/12/01 00:21:23;;;;;;;0.60;0.60;;;;;;;2.19;82.83;102304.03;5045507;28;20036;-73
2022/12/01 00:23:51;;;;;;;0.75;0.75;;;;;;;2.13;82.85;102287.41;5045445;28;20025;-72
2022/12/01 00:26:18;;;;;;;0.60;0.60;;;;;;;2.17;82.90;102299.63;5045116;28;20081;-73
2022/12/01 00:28:48;;;;;;;0.60;0.60;;;;;;;2.18;82.93;102298.81;5045372;28;20060;-72
2022/12/01 00:31:13;;;;;;;0.60;0.60;;;;;;;2.15;82.92;102296.09;5045127;28;20025;-73
2022/12/01 00:33:39;;;;;;;0.70;0.70;;;;;;;2.14;83.01;102291.75;5045424;28;20033;-72
2022/12/01 00:36:05;;;;;;;0.60;0.60;;;;;;;2.07;82.82;102295.66;5045297;28;20021;-73
2022/12/01 00:38:30;;;;;;;0.60;0.60;;;;;;;2.12;83.16;102301.94;5045245;28;20036;-73
2022/12/01 00:40:56;;;;;;;0.52;0.52;;;;;;;2.14;82.96;102302.88;5045172;28;20029;-72
2022/12/01 00:43:23;;;;;;;0.52;0.52;;;;;;;2.11;83.16;102297.56;5043755;28;20155;-72
2022/12/01 00:45:49;;;;;;;0.60;0.60;;;;;;;2.13;83.14;102293.44;5043322;28;20029;-72
2022/12/01 00:48:15;;;;;;;0.50;0.50;;;;;;;2.10;83.28;102288.13;5042478;28;20033;-73
2022/12/01 00:50:41;;;;;;;0.57;0.57;;;;;;;2.14;83.18;102296.88;5043802;28;20433;-71
2022/12/01 00:53:06;;;;;;;0.50;0.50;;;;;;;2.09;83.30;102294.94;5042267;28;20056;-71
2022/12/01 00:55:32;;;;;;;0.50;0.50;;;;;;;2.13;83.42;102301.13;5043831;28;20032;-71
2022/12/01 00:57:57;;;;;;;0.60;0.60;;;;;;;2.10;83.48;102296.72;5044918;28;20022;-73
2022/12/01 01:00:22;;;;;;;0.70;0.70;;;;;;;2.08;83.27;102285.47;5044710;28;20028;-72
2022/12/01 01:02:48;;;;;;;0.50;0.50;;;;;;;2.10;83.43;102295.81;5045097;28;20030;-72
2022/12/01 01:05:13;;;;;;;0.47;0.47;;;;;;;2.14;83.42;102286.63;5044855;28;20389;-72
2022/12/01 01:07:38;;;;;;;0.55;0.55;;;;;;;2.15;83.34;102294.41;5044644;28;20029;-71
2022/12/01 01:10:04;;;;;;;0.60;0.60;;;;;;;2.13;83.42;102288.31;5044942;28;20037;-72
2022/12/01 01:12:30;;;;;;;0.60;0.60;;;;;;;2.11;83.51;102289.88;5043626;28;20021;-71
2022/12/01 01:14:55;;;;;;;0.60;0.60;;;;;;;2.12;83.46;102295.91;5044514;28;20032;-72
2022/12/01 01:17:20;;;;;;;0.50;0.50;;;;;;;2.18;83.37;102301.38;5044589;28;20053;-72
2022/12/01 01:19:46;;;;;;;0.60;0.60;;;;;;;2.15;83.39;102304.66;5043901;28;20049;-72
2022/12/01 01:22:11;;;;;;;0.60;0.60;;;;;;;2.14;83.47;102296.88;5043603;28;20079;-72
2022/12/01 01:24:37;;;;;;;0.50;0.50;;;;;;;2.16;83.43;102306.41;5044746;28;20096;-71
2022/12/01 01:27:04;;;;;;;0.60;0.60;;;;;;;2.12;83.53;102301.94;5043059;28;20037;-72
2022/12/01 01:29:30;;;;;;;0.52;0.52;;;;;;;2.13;83.42;102307.91;5044542;28;20021;-72
2022/12/01 01:31:55;;;;;;;0.60;0.60;;;;;;;2.08;83.41;102305.97;5044713;28;20025;-72
2022/12/01 01:34:20;;;;;;;0.60;0.60;;;;;;;2.10;83.47;102295.81;5043380;28;20022;-73
2022/12/01 01:36:46;;;;;;;0.60;0.60;;;;;;;2.06;83.49;102299.00;5044698;28;20076;-72
2022/12/01 01:39:11;;;;;;;5.05;4.80;;;;;;;2.08;83.36;102305.09;5044568;28;20025;-72
2022/12/01 01:41:36;;;;;;;0.50;0.50;;;;;;;2.12;83.35;102312.19;5044635;28;20052;-71
2022/12/01 01:44:02;;;;;;;0.70;0.70;;;;;;;2.11;83.40;102305.25;5044689;28;20029;-72
2022/12/01 01:46:30;;;;;;;0.50;0.50;;;;;;;2.07;83.53;102300.78;5042996;28;20025;-72
2022/12/01 01:49:08;;;;;;;0.57;0.57;;;;;;;2.10;83.57;102306.97;5044638;28;20025;-71
2022/12/01 01:51:42;;;;;;;0.60;0.60;;;;;;;2.07;83.51;102303.34;5044602;28;20104;-71
2022/12/01 01:54:19;;;;;;;1.05;1.05;;;;;;;2.02;83.48;102300.50;5044516;28;20030;-71
2022/12/01 01:56:46;;;;;;;0.60;0.60;;;;;;;2.04;83.59;102308.28;5044404;28;20072;-71
2022/12/01 01:59:15;;;;;;;1.95;1.85;;;;;;;2.04;83.61;102306.63;5044261;28;20038;-71
2022/12/01 02:01:41;;;;;;;0.63;0.63;;;;;;;2.03;83.64;102312.50;5043235;28;20088;-71
2022/12/01 02:04:06;;;;;;;0.63;0.63;;;;;;;1.98;83.55;102296.88;5043642;28;20035;-71
2022/12/01 02:06:32;;;;;;;0.60;0.60;;;;;;;1.96;83.63;102303.63;5046741;28;20029;-71
2022/12/01 02:08:57;;;;;;;0.60;0.60;;;;;;;1.93;83.69;102305.97;5048104;28;20397;-71
2022/12/01 02:12:02;;;;;;;0.70;0.70;;;;;;;1.96;83.73;102303.63;5046719;28;20036;-71
2022/12/01 02:14:33;;;;;;;0.60;0.60;;;;;;;1.93;83.67;102300.84;5046645;28;20021;-71
2022/12/01 02:17:21;;;;;;;0.70;0.70;;;;;;;1.91;83.77;102302.44;5046598;28;20020;-71
2022/12/01 02:20:05;;;;;;;0.50;0.50;;;;;;;1.90;83.84;102295.53;5047769;28;20103;-70
2022/12/01 02:23:04;;;;;;;0.50;0.50;;;;;;;1.88;83.78;102297.16;5047831;28;20041;-70
2022/12/01 02:25:48;;;;;;;0.60;0.60;;;;;;;1.88;83.89;102297.16;5047689;28;20017;-72
2022/12/01 02:28:28;;;;;;;0.52;0.52;;;;;;;1.88;83.78;102297.16;5047552;28;20072;-73
2022/12/01 02:31:00;;;;;;;0.60;0.60;;;;;;;1.85;83.95;102294.41;5046132;28;20025;-73
2022/12/01 02:33:39;;;;;;;0.60;0.60;;;;;;;1.81;84.08;102288.22;5047682;28;20021;-73
2022/12/01 02:36:33;;;;;;;0.50;0.50;;;;;;;1.84;83.90;102300.31;5047436;28;20081;-72
2022/12/01 02:38:59;;;;;;;0.70;0.70;;;;;;;1.81;84.04;102295.91;5047594;28;20492;-72
2022/12/01 02:41:31;;;;;;;0.60;0.60;;;;;;;1.81;84.11;102290.78;5046077;28;20033;-72
2022/12/01 02:44:10;;;;;;;3.22;3.03;;;;;;;1.79;84.19;102294.94;5047470;28;20025;-72
2022/12/01 02:46:46;;;;;;;0.50;0.50;;;;;;;1.80;84.29;102298.38;5047284;28;20041;-71
2022/12/01 02:49:19;;;;;;;0.60;0.60;;;;;;;1.79;84.26;102294.94;5045969;28;20036;-72
2022/12/01 02:51:45;;;;;;;0.50;0.50;;;;;;;1.75;84.43;102281.84;5047373;28;20029;-71
2022/12/01 02:54:13;;;;;;;0.50;0.50;;;;;;;1.74;84.31;102288.66;5047092;28;20037;-72
2022/12/01 02:56:38;;;;;;;0.60;0.60;;;;;;;1.69;84.33;102288.38;5046972;28;20025;-71
2022/12/01 02:59:12;;;;;;;1.10;1.10;;;;;;;1.72;84.55;102288.59;5047174;28;20028;-72
2022/12/01 03:01:51;;;;;;;0.60;0.60;;;;;;;1.74;84.57;102291.22;5047066;28;20022;-71
2022/12/01 03:04:38;;;;;;;0.60;0.60;;;;;;;1.70;84.57;102291.81;5045753;28;20032;-72
2022/12/01 03:07:16;;;;;;;0.88;0.88;;;;;;;1.70;84.73;102291.81;5046902;28;20089;-72
2022/12/01 03:10:07;;;;;;;0.50;0.50;;;;;;;1.66;84.78;102292.44;5047103;28;20064;-72
2022/12/01 03:12:42;;;;;;;0.60;0.60;;;;;;;1.65;84.80;102296.69;5046865;28;20041;-72
2022/12/01 03:15:25;;;;;;;0.50;0.50;;;;;;;1.65;84.83;102293.22;5046370;28;20079;-72
2022/12/01 03:18:23;;;;;;;0.60;0.60;;;;;;;1.64;85.06;102289.81;5045107;28;20096;-72
2022/12/01 03:20:55;;;;;;;0.52;0.52;;;;;;;1.63;85.11;102282.03;5046730;28;20037;-72
2022/12/01 03:23:22;;;;;;;;;;;;;;;1.68;85.07;102288.28;5047134;28;20030;-72
2022/12/01 03:25:50;;;;;;;0.60;0.60;;;;;;;1.52;85.27;102271.16;5046603;28;19913;-73
2022/12/01 03:28:22;;;;;;;0.50;0.50;;;;;;;1.60;85.38;102281.03;5043666;28;20060;-72
2022/12/01 03:30:51;;;;;;;0.70;0.70;;;;;;;1.62;85.49;102281.13;5045136;28;20100;-72
2022/12/01 03:33:24;;;;;;;0.50;0.50;;;;;;;1.60;85.41;102278.50;5045154;28;20097;-71
2022/12/01 03:36:06;;;;;;;0.60;0.60;;;;;;;1.57;85.60;102279.97;5045242;28;20096;-71
2022/12/01 03:38:35;;;;;;;0.50;0.50;;;;;;;1.50;85.60;102262.50;5046470;28;20025;-72
2022/12/01 03:41:12;;;;;;;0.60;0.60;;;;;;;1.57;85.50;102275.75;5044977;28;20025;-72
2022/12/01 03:43:43;;;;;;;0.60;0.60;;;;;;;1.64;85.51;102279.56;5044899;28;20025;-72
2022/12/01 03:46:18;;;;;;;0.80;0.80;;;;;;;1.60;85.59;102278.50;5046062;28;20025;-71
2022/12/01 03:48:43;;;;;;;0.60;0.60;;;;;;;1.59;85.53;102286.06;5044857;28;20029;-72
2022/12/01 03:51:14;;;;;;;0.60;0.60;;;;;;;1.61;85.61;102276.81;5044802;28;20053;-71
2022/12/01 03:53:56;;;;;;;0.70;0.70;;;;;;;1.59;85.66;102283.53;5046106;28;20032;-71
2022/12/01 03:56:26;;;;;;;0.80;0.80;;;;;;;1.56;85.67;102275.66;5046121;28;20024;-71
2022/12/01 03:58:56;;;;;;;0.57;0.57;;;;;;;1.55;85.51;102273.91;5045819;28;20057;-72
2022/12/01 04:01:21;;;;;;;0.60;0.60;;;;;;;1.54;85.79;102277.22;5045761;28;20029;-71
2022/12/01 04:03:47;;;;;;;0.70;0.70;;;;;;;1.54;85.64;102267.00;5045861;28;20017;-72
2022/12/01 04:06:13;;;;;;;0.60;0.60;;;;;;;1.53;85.79;102278.03;5045728;28;20033;-72
2022/12/01 04:08:39;;;;;;;0.60;0.60;;;;;;;1.49;85.74;102269.28;5045773;28;20560;-71
2022/12/01 04:12:28;;;;;;;0.60;0.60;;;;;;;1.56;85.68;102284.22;5045744;28;20029;-72
2022/12/01 04:13:50;;;;;;;0.60;0.60;;;;;;;1.55;85.71;102289.25;5045508;28;20029;-72
2022/12/01 04:16:15;;;;;;;0.50;0.50;;;;;;;1.54;85.73;102279.78;5045453;28;20428;-73
2022/12/01 04:18:41;;;;;;;0.60;0.60;;;;;;;1.59;85.61;102278.41;5045332;28;20049;-73
2022/12/01 04:21:06;;;;;;;0.60;0.60;;;;;;;1.52;85.69;102273.72;5045620;28;20021;-71
2022/12/01 04:26:15;;;;;;;0.60;0.60;;;;;;;1.54;85.56;102274.69;5045717;28;20036;-72
2022/12/01 04:28:40;;;;;;;0.52;0.52;;;;;;;1.51;85.49;102272.81;5045170;28;20115;-74
2022/12/01 04:31:06;;;;;;;0.57;0.57;;;;;;;1.46;85.78;102267.44;5045418;28;20021;-74
2022/12/01 04:33:31;;;;;;;0.70;0.70;;;;;;;1.46;85.81;102274.22;5044260;28;20397;-73
2022/12/01 04:36:00;;;;;;;0.50;0.50;;;;;;;1.50;85.71;102280.41;5045217;28;20029;-73
2022/12/01 04:38:26;;;;;;;0.75;0.75;;;;;;;1.46;85.60;102277.69;5045284;28;20033;-73
2022/12/01 04:40:51;;;;;;;0.60;0.60;;;;;;;1.45;85.66;102283.56;5045398;28;20049;-73
2022/12/01 04:43:17;;;;;;;0.60;0.60;;;;;;;1.48;85.81;102285.44;5045270;28;20488;-73
2022/12/01 04:45:42;;;;;;;0.60;0.60;;;;;;;1.47;85.68;102287.13;5045434;28;20029;-73
2022/12/01 04:48:07;;;;;;;0.60;0.60;;;;;;;1.46;85.71;102292.13;5043744;28;20055;-72
2022/12/01 04:50:33;;;;;;;0.60;0.60;;;;;;;1.44;85.64;102293.72;5045368;28;20025;-72
2022/12/01 04:52:58;;;;;;;0.85;0.85;;;;;;;1.45;85.52;102290.38;5043791;28;20026;-73
2022/12/01 04:55:24;;;;;;;0.60;0.60;;;;;;;1.42;85.60;102296.19;5045213;28;20017;-72
2022/12/01 04:57:50;;;;;;;0.50;0.50;;;;;;;1.41;85.55;102296.09;5044946;28;20018;-72
2022/12/01 05:00:17;;;;;;;0.60;0.60;;;;;;;1.34;85.43;102274.38;5044906;28;20029;-72
2022/12/01 05:02:43;;;;;;;0.60;0.60;;;;;;;1.40;85.57;102296.91;5045038;28;20022;-71
2022/12/01 05:05:12;;;;;;;0.60;0.60;;;;;;;1.37;85.54;102292.50;5045078;28;20032;-72
2022/12/01 05:07:38;;;;;;;0.60;0.60;;;;;;;1.38;85.71;102294.25;5044834;28;20025;-70
2022/12/01 05:10:04;;;;;;;0.50;0.50;;;;;;;1.31;85.57;102287.88;5043780;28;20094;-71
2022/12/01 05:12:30;;;;;;;0.60;0.60;;;;;;;1.28;85.50;102291.94;5044785;28;20025;-68
2022/12/01 05:14:55;;;;;;;0.60;0.60;;;;;;;1.27;85.61;102298.72;5044536;28;20037;-71
2022/12/01 05:17:20;;;;;;;0.60;0.60;;;;;;;1.27;85.50;102279.91;5043380;28;20018;-72
2022/12/01 05:22:29;;;;;;;0.60;0.60;;;;;;;1.20;85.65;102289.78;5045123;28;20092;-74
2022/12/01 05:24:55;;;;;;;0.60;0.60;;;;;;;1.24;85.90;102290.84;5044949;28;20103;-74
2022/12/01 05:27:20;;;;;;;0.60;0.60;;;;;;;1.21;85.91;102299.25;5044757;28;20029;-74
2022/12/01 05:29:45;;;;;;;0.70;0.70;;;;;;;1.18;85.97;102300.72;5044697;28;20026;-75
2022/12/01 05:32:11;;;;;;;0.60;0.60;;;;;;;1.20;85.82;102300.00;5044929;28;20022;-74
2022/12/01 05:34:36;;;;;;;0.55;0.55;;;;;;;1.15;85.71;102293.72;5045085;28;20026;-75
2022/12/01 05:37:02;;;;;;;0.60;0.60;;;;;;;1.16;85.88;102297.19;5044576;28;20029;-74
2022/12/01 05:39:27;;;;;;;0.55;0.55;;;;;;;1.14;85.82;102296.19;5045813;28;20053;-76
2022/12/01 05:41:52;;;;;;;0.73;0.73;;;;;;;1.08;85.94;102296.72;5048696;28;20018;-71
2022/12/01 05:44:18;;;;;;;0.60;0.60;;;;;;;1.07;86.00;102298.38;5048320;28;20029;-70
2022/12/01 05:46:43;;;;;;;0.60;0.60;;;;;;;1.04;85.97;102297.31;5048625;28;20032;-71
2022/12/01 05:49:09;;;;;;;0.60;0.60;;;;;;;1.03;85.94;102300.66;5046636;28;20090;-73
2022/12/01 05:51:34;;;;;;;1.15;1.15;;;;;;;1.02;85.98;102306.56;5048172;28;20120;-72
2022/12/01 05:53:59;;;;;;;0.60;0.60;;;;;;;0.92;86.04;102300.88;5047706;28;20117;-72
2022/12/01 05:56:25;;;;;;;0.50;0.50;;;;;;;0.94;86.20;102304.41;5048384;28;20048;-73
2022/12/01 05:58:50;;;;;;;0.60;0.60;;;;;;;0.85;86.21;102293.59;5047906;28;20033;-73
2022/12/01 06:01:16;;;;;;;0.90;0.90;;;;;;;0.91;86.19;102305.91;5047992;28;20081;-71
2022/12/01 06:03:41;;;;;;;0.50;0.50;;;;;;;0.91;86.22;102309.31;5046915;28;20469;-72
2022/12/01 06:06:06;;;;;;;0.60;0.60;;;;;;;0.88;86.23;102308.28;5048278;28;20109;-73
2022/12/01 06:08:32;;;;;;;0.50;0.50;;;;;;;0.85;86.11;102301.28;5048147;28;20113;-72
2022/12/01 06:10:57;;;;;;;1.30;1.30;;;;;;;0.85;86.06;102312.41;5048034;28;20029;-72
2022/12/01 06:13:23;;;;;;;0.60;0.60;;;;;;;0.84;86.16;102318.31;5046837;28;20025;-70
2022/12/01 06:15:56;;;;;;;0.60;0.60;;;;;;;0.79;86.29;102314.56;5047690;28;20028;-71
2022/12/01 06:18:21;;;;;;;0.60;0.60;;;;;;;0.76;86.12;102316.94;5047594;28;20061;-72
2022/12/01 06:20:47;;;;;;;0.50;0.50;;;;;;;0.74;86.20;102315.94;5047571;28;20071;-72
2022/12/01 06:23:12;;;;;;;0.60;0.60;;;;;;;0.79;86.21;102324.81;5047835;28;20033;-72
2022/12/01 06:25:37;;;;;;;0.55;0.55;;;;;;;0.78;86.19;102317.94;5047619;28;20084;-72
2022/12/01 06:28:03;;;;;;;0.82;0.82;;;;;;;0.64;86.21;102301.69;5047421;28;20022;-71
2022/12/01 06:30:28;;;;;;;0.60;0.60;;;;;;;0.77;86.28;102323.81;5047293;28;20062;-71
2022/12/01 06:32:53;;;;;;;0.50;0.50;;;;;;;0.69;86.17;102320.78;5047711;28;20032;-73
2022/12/01 06:35:19;;;;;;;0.50;0.50;;;;;;;0.70;86.31;102317.41;5046392;28;20465;-73
2022/12/01 06:37:45;;;;;;;0.63;0.63;;;;;;;0.69;86.32;102319.88;5047554;28;20030;-72
2022/12/01 06:40:11;;;;;;;0.65;0.65;;;;;;;0.71;86.43;102326.00;5047601;28;20196;-72
2022/12/01 06:42:36;;;;;;;2.40;2.20;;;;;;;0.71;86.33;102332.00;5046057;28;20493;-73
2022/12/01 06:45:01;;;;;;;0.60;0.60;;;;;;;0.74;86.24;102328.72;5047134;28;20039;-72
2022/12/01 06:47:27;;;;;;;0.60;0.60;;;;;;;0.70;85.99;102332.75;5045749;28;20021;-72
2022/12/01 06:49:52;;;;;;;0.60;0.60;;;;;;;0.67;86.34;102324.91;5047213;28;20017;-73
2022/12/01 06:52:17;;;;;;;0.60;0.60;;;;;;;0.71;86.27;102334.56;5047488;28;20135;-73
2022/12/01 06:54:43;;;;;;;0.60;0.60;;;;;;;0.72;86.44;102336.31;5047265;28;20032;-73
2022/12/01 06:57:08;;;;;;;0.60;0.60;;;;;;;0.68;86.51;102329.25;5045894;28;20013;-73
2022/12/01 06:59:33;;;;;;;1.00;1.00;;;;;;;0.75;86.52;102335.63;5047028;28;20055;-73
2022/12/01 07:01:59;;;;;;;0.60;0.60;;;;;;;0.72;86.78;102331.19;5045863;28;20030;-72
2022/12/01 07:04:24;;;;;;;0.60;0.60;;;;;;;0.76;86.63;102339.06;5045817;28;20071;-72
2022/12/01 07:06:50;;;;;;;0.65;0.65;;;;;;;0.76;86.66;102341.63;5046974;28;20048;-72
2022/12/01 07:09:15;;;;;;;0.60;0.60;;;;;;;0.56;86.66;102305.47;5046919;28;20040;-72
2022/12/01 07:11:40;;;;;;;0.60;0.60;;;;;;;0.71;86.77;102332.00;5046885;28;20048;-73
2022/12/01 07:14:15;;;;;;;0.60;0.60;;;;;;;0.67;86.69;102327.47;5047116;28;20092;-72
2022/12/01 07:16:40;;;;;;;0.60;0.60;;;;;;;0.72;86.76;102333.75;5046742;28;20022;-72
2022/12/01 07:19:06;;;;;;;0.60;0.60;;;;;;;0.66;87.00;102323.13;5046605;28;20133;-72
2022/12/01 07:21:31;;;;;;;0.50;0.50;;;;;;;0.73;86.87;102335.53;5046660;28;20029;-72
2022/12/01 07:23:57;;;;;;;0.70;0.70;;;;;;;0.73;86.95;102335.53;5046823;28;20085;-71
2022/12/01 07:26:22;;;;;;;0.60;0.60;;;;;;;0.75;87.02;102343.31;5044936;28;20021;-71
2022/12/01 07:28:48;;;;;;;0.60;0.60;;;;;;;0.74;87.24;102342.41;5044222;28;20029;-72
2022/12/01 07:31:16;;;;;;;0.60;0.60;;;;;;;0.74;87.02;102347.53;5045445;28;20021;-71
2022/12/01 07:33:41;;;;;;;0.50;0.50;;;;;;;0.74;86.91;102346.63;5046696;28;20032;-71
2022/12/01 07:36:08;;;;;;;0.60;0.60;;;;;;;0.73;87.01;102350.88;5046686;28;20013;-72
2022/12/01 07:38:34;;;;;;;0.60;0.60;;;;;;;0.76;87.01;102347.63;5046341;28;20057;-72
2022/12/01 07:41:08;;;;;;;0.70;0.70;;;;;;;0.79;87.07;102344.38;5046369;28;20025;-70
2022/12/01 07:43:35;;;;;;;0.60;0.60;;;;;;;0.77;86.88;102340.84;5046432;28;20513;-70
2022/12/01 07:46:07;;;;;;;0.60;0.60;;;;;;;0.83;86.97;102346.34;5045967;28;20291;-71
2022/12/01 07:48:34;;;;;;;0.50;0.50;;;;;;;0.85;87.03;102352.44;5046393;28;20036;-71
2022/12/01 07:51:00;;;;;;;0.50;0.50;;;;;;;0.89;87.01;102358.63;5046181;28;20088;-71
2022/12/01 07:53:25;;;;;;;0.60;0.60;;;;;;;0.91;87.10;102350.25;5046284;28;20061;-71
2022/12/01 07:55:50;;;;;;;0.57;0.57;;;;;;;0.93;86.92;102356.34;5045983;28;20083;-71
2022/12/01 07:58:16;;;;;;;0.60;0.60;;;;;;;0.94;87.12;102355.56;5045969;28;20022;-72
2022/12/01 08:00:42;;;;;;;0.50;0.50;;;;;;;0.98;87.19;102348.97;5046140;28;20425;-71
2022/12/01 08:03:07;;;;;;;0.50;0.50;;;;;;;1.12;87.26;102360.06;5045434;28;20025;-72
2022/12/01 08:05:32;;;;;;;0.40;0.40;;;;;;;1.17;87.51;102355.22;5045918;28;20032;-72
2022/12/01 08:07:58;;;;;;;0.60;0.60;;;;;;;1.28;87.42;102354.22;5045595;28;20032;-72
2022/12/01 08:10:23;;;;;;;0.63;0.63;;;;;;;1.37;87.01;102359.03;5045872;28;20032;-72
2022/12/01 08:12:49;;;;;;;2.38;2.25;;;;;;;1.38;87.03;102354.78;5044417;28;20048;-72
2022/12/01 08:15:14;;;;;;;0.60;0.60;;;;;;;1.41;86.92;102366.09;5045491;28;20142;-72
2022/12/01 08:17:40;;;;;;;0.60;0.60;;;;;;;1.38;86.75;102354.78;5045629;28;20017;-72
2022/12/01 08:20:06;;;;;;;0.50;0.50;;;;;;;1.34;86.75;102348.59;5045151;28;20056;-72
2022/12/01 08:22:31;;;;;;;0.60;0.60;;;;;;;1.40;86.93;102363.44;5045620;28;20382;-73
2022/12/01 08:24:57;;;;;;;1.02;1.02;;;;;;;1.51;87.15;102357.31;5045441;28;20029;-73
2022/12/01 08:27:22;;;;;;;0.57;0.57;;;;;;;1.73;87.36;102359.47;5045280;28;20036;-73
2022/12/01 08:29:47;;;;;;;0.60;0.60;;;;;;;1.89;86.88;102365.50;5043885;28;20504;-72
2022/12/01 08:32:13;;;;;;;0.60;0.60;;;;;;;1.96;86.32;102365.09;5045452;28;20017;-73
2022/12/01 08:34:40;;;;;;;1.60;1.58;;;;;;;2.10;86.85;102368.47;5045558;28;20021;-74
2022/12/01 08:37:05;;;;;;;2.25;1.77;;;;;;;2.40;86.93;102370.13;5045521;28;20025;-74
2022/12/01 08:39:31;;;;;;;0.50;0.50;;;;;;;2.63;86.47;102359.41;5045391;28;20056;-73
2022/12/01 08:41:56;;;;;;;0.60;0.60;;;;;;;3.14;86.20;102372.47;5045409;28;20044;-73
2022/12/01 08:44:21;;;;;;;0.50;0.50;;;;;;;3.68;85.29;102373.53;5045495;28;20032;-73
2022/12/01 08:46:46;;;;;;;0.52;0.52;;;;;;;4.27;83.88;102383.31;5045113;28;20042;-73
2022/12/01 08:49:12;;;;;;;0.57;0.57;;;;;;;4.54;82.14;102378.66;5045214;28;20022;-73
2022/12/01 08:51:37;;;;;;;0.60;0.60;;;;;;;4.87;81.44;102379.31;5043676;28;20087;-73
2022/12/01 08:54:03;;;;;;;0.50;0.50;;;;;;;5.01;80.92;102380.88;5045145;28;20029;-73
2022/12/01 08:56:32;;;;;;;0.50;0.50;;;;;;;5.30;81.00;102373.56;5045171;28;20089;-73
2022/12/01 08:58:58;;;;;;;0.52;0.52;;;;;;;5.70;80.22;102376.19;5045068;28;20036;-73
2022/12/01 09:01:24;;;;;;;0.50;0.50;;;;;;;5.82;79.07;102373.25;5044905;28;20159;-73
2022/12/01 09:04:04;;;;;;;0.57;0.57;;;;;;;5.80;79.01;102373.19;5043647;28;20025;-73
2022/12/01 09:06:31;;;;;;;0.52;0.52;;;;;;;5.97;78.51;102380.75;5045053;28;20105;-73
2022/12/01 09:08:59;;;;;;;0.50;0.50;;;;;;;6.07;77.83;102376.91;5044896;28;20048;-73
2022/12/01 09:11:24;;;;;;;0.50;0.50;;;;;;;6.39;76.76;102384.22;5045029;28;20075;-74
2022/12/01 09:13:50;;;;;;;0.60;0.60;;;;;;;6.33;75.83;102384.84;5045095;28;20029;-73
2022/12/01 09:16:16;;;;;;;0.50;0.50;;;;;;;5.85;75.87;102375.94;5049013;28;20028;-73
2022/12/01 09:18:43;;;;;;;0.50;0.50;;;;;;;5.36;75.75;102382.41;5048504;28;20064;-73
2022/12/01 09:21:38;;;;;;;0.65;0.65;;;;;;;4.75;76.19;102388.22;5048899;28;20055;-73
2022/12/01 09:24:05;;;;;;;0.77;0.77;;;;;;;4.31;76.92;102390.41;5048113;28;20575;-73
2022/12/01 09:26:31;;;;;;;0.70;0.70;;;;;;;4.08;77.93;102391.00;5048523;28;20129;-73
2022/12/01 09:29:00;;;;;;;0.50;0.50;;;;;;;3.84;78.12;102388.06;5048605;28;20093;-72
2022/12/01 09:31:25;;;;;;;0.70;0.70;;;;;;;3.76;78.05;102387.66;5048485;28;20431;-73
2022/12/01 09:33:59;;;;;;;0.50;0.50;;;;;;;3.54;78.04;102388.22;5048660;28;20030;-72
2022/12/01 09:36:26;;;;;;;0.60;0.60;;;;;;;3.40;78.27;102397.78;5048782;28;20025;-73
2022/12/01 09:38:51;;;;;;;0.50;0.50;;;;;;;3.30;78.80;102396.41;5048485;28;20117;-73
2022/12/01 09:41:21;;;;;;;0.60;0.60;;;;;;;3.29;79.18;102397.22;5048519;28;20030;-73
2022/12/01 09:44:13;;;;;;;0.55;0.55;;;;;;;3.27;79.13;102388.53;5048491;28;20025;-73
2022/12/01 09:46:44;;;;;;;0.70;0.70;;;;;;;3.14;78.88;102389.53;5048293;28;20053;-73
2022/12/01 09:49:16;;;;;;;0.50;0.50;;;;;;;3.05;79.32;102389.94;5048415;28;20104;-73
2022/12/01 09:51:41;;;;;;;0.70;0.70;;;;;;;3.05;79.26;102395.94;5048503;28;20017;-72
2022/12/01 09:54:12;;;;;;;0.93;0.75;;;;;;;2.96;79.65;102380.94;5048329;28;20561;-72
2022/12/01 09:56:45;;;;;;;0.60;0.60;;;;;;;2.87;79.86;102372.72;5048370;28;20025;-72
2022/12/01 09:59:19;;;;;;;0.60;0.60;;;;;;;2.97;79.88;102390.38;5048324;28;20049;-73
2022/12/01 10:01:48;;;;;;;0.60;0.60;;;;;;;2.96;80.06;102388.63;5048067;28;20029;-72
2022/12/01 10:04:39;;;;;;;0.60;0.60;;;;;;;3.16;80.24;102386.28;5048213;28;20044;-73
2022/12/01 10:07:46;;;;;;;0.80;0.80;;;;;;;3.42;79.78;102375.63;5048109;28;20043;-73
2022/12/01 10:10:23;;;;;;;0.52;0.52;;;;;;;3.66;79.25;102378.59;5025804;28;20037;-73
2022/12/01 10:12:49;;;;;;;0.60;0.60;;;;;;;3.82;78.47;102379.38;5025928;28;20049;-74
2022/12/01 10:15:29;;;;;;;0.55;0.55;;;;;;;3.82;78.56;102384.53;5025574;28;20048;-73
2022/12/01 10:17:54;;;;;;;0.55;0.55;;;;;;;3.67;78.42;102361.50;5025880;28;20040;-73
2022/12/01 10:20:39;;;;;;;0.60;0.60;;;;;;;3.67;78.19;102372.69;5025399;28;20085;-73
2022/12/01 10:23:17;;;;;;;0.60;0.60;;;;;;;3.59;78.30;102368.81;5025642;28;20029;-73
2022/12/01 10:26:08;;;;;;;0.60;0.60;;;;;;;3.60;78.36;102373.16;5025037;28;20108;-73
2022/12/01 10:28:52;;;;;;;0.68;0.68;;;;;;;3.73;78.54;102374.66;5008959;28;20030;-73
2022/12/01 10:31:27;;;;;;;0.60;0.60;;;;;;;3.68;78.10;102364.16;5025335;28;20030;-73
2022/12/01 10:33:59;;;;;;;1.40;1.40;;;;;;;3.64;78.00;102367.38;5008909;28;20030;-72
2022/12/01 10:36:26;;;;;;;0.60;0.60;;;;;;;3.58;78.20;102364.47;5025498;28;20025;-73
2022/12/01 10:38:51;;;;;;;0.60;0.60;;;;;;;3.50;78.23;102350.38;5025460;28;20061;-73
2022/12/01 10:41:19;;;;;;;0.50;0.50;;;;;;;3.55;77.79;102362.63;5032688;28;20029;-74
2022/12/01 10:43:49;;;;;;;2.25;1.45;;;;;;;3.43;78.32;102362.88;5047369;28;20033;-72
2022/12/01 10:46:24;;;;;;;0.50;0.50;;;;;;;3.44;78.55;102367.22;5047312;28;20056;-74
2022/12/01 10:48:57;;;;;;;0.50;0.50;;;;;;;3.44;78.57;102363.75;5045873;28;20022;-73
2022/12/01 10:51:24;;;;;;;1.23;1.23;;;;;;;3.42;78.50;102358.53;5045849;28;20033;-73
2022/12/01 10:53:56;;;;;;;0.50;0.50;;;;;;;3.41;78.72;102353.31;5047353;28;20040;-74
2022/12/01 10:56:21;;;;;;;0.98;0.98;;;;;;;3.42;78.50;102350.81;5047252;28;20035;-73
2022/12/01 10:58:46;;;;;;;0.50;0.50;;;;;;;3.41;78.91;102356.78;5045817;28;20057;-73
2022/12/01 11:01:29;;;;;;;0.50;0.50;;;;;;;3.44;78.91;102351.81;5045592;28;20026;-73
2022/12/01 11:04:19;;;;;;;0.55;0.55;;;;;;;3.43;78.86;102347.47;5047240;28;20032;-73
2022/12/01 11:06:49;;;;;;;0.50;0.50;;;;;;;3.31;78.71;102354.50;5047063;28;20116;-72
2022/12/01 11:09:20;;;;;;;0.70;0.70;;;;;;;3.25;79.02;102341.34;5045607;28;20477;-72
2022/12/01 11:11:55;;;;;;;0.70;0.70;;;;;;;3.30;79.05;102340.81;5047128;28;20040;-73
2022/12/01 11:14:26;;;;;;;0.60;0.60;;;;;;;3.28;79.13;102338.94;5047028;28;20029;-73
2022/12/01 11:16:52;;;;;;;0.80;0.80;;;;;;;3.31;79.14;102340.00;5046894;28;20028;-73
2022/12/01 11:19:31;;;;;;;0.60;0.60;;;;;;;3.31;79.34;102329.72;5046623;28;20045;-73
2022/12/01 11:21:59;;;;;;;0.50;0.50;;;;;;;3.31;79.11;102327.16;5046845;28;20055;-72
2022/12/01 11:24:29;;;;;;;0.50;0.50;;;;;;;3.33;79.22;102327.25;5046615;28;20025;-72
2022/12/01 11:26:57;;;;;;;0.60;0.60;;;;;;;3.40;79.32;102320.75;5046160;28;20589;-75
2022/12/01 11:29:41;;;;;;;0.50;0.50;;;;;;;3.41;79.45;102313.13;5043919;28;20031;-75
2022/12/01 11:32:34;;;;;;;0.60;0.60;;;;;;;3.43;78.89;102314.09;5045762;28;20025;-73
2022/12/01 11:35:04;;;;;;;0.60;0.60;;;;;;;3.35;79.09;102305.97;5043997;28;20037;-74
2022/12/01 11:37:35;;;;;;;0.60;0.60;;;;;;;3.45;78.73;102316.75;5045509;28;20018;-73
2022/12/01 11:40:17;;;;;;;0.43;0.43;;;;;;;3.40;79.01;102319.06;5045160;28;20421;-73
2022/12/01 11:42:48;;;;;;;1.20;1.20;;;;;;;3.38;78.77;102310.41;5046409;28;20025;-74
2022/12/01 11:45:19;;;;;;;0.60;0.60;;;;;;;3.49;78.77;102325.47;5044878;28;20124;-74
2022/12/01 11:48:03;;;;;;;0.77;0.77;;;;;;;3.45;78.76;102316.75;5046037;28;20033;-74
2022/12/01 11:50:35;;;;;;;0.70;0.70;;;;;;;3.41;78.49;102319.94;5046142;28;20040;-73
2022/12/01 11:53:01;;;;;;;;;;;;;;;3.40;78.79;102321.63;5046753;28;20093;-74